sensor_id;sensor_type;location;lat;lon;timestamp;P1;durP1;ratioP1;P2;durP2;ratioP2
18905;SDS011;9585;51.018;4.282;2023-02-28T00:01:36;4.93;;;4.17;;
18905;SDS011;9585;51.018;4.282;2023-02-28T00:04:24;5.03;;;3.80;;
18905;SDS011;9585;51.018;4.282;2023-02-28T00:06:53;6.80;;;4.40;;
18905;SDS011;9585;51.018;4.282;2023-02-28T00:09:21;5.83;;;4.10;;
18905;SDS011;9585;51.018;4.282;2023-02-28T00:11:50;6.53;;;4.17;;
18905;SDS011;9585;51.018;4.282;2023-02-28T00:14:23;5.23;;;4.10;;
18905;SDS011;9585;51.018;4.282;2023-02-28T00:16:51;6.53;;;4.73;;
18905;SDS011;9585;51.018;4.282;2023-02-28T00:19:19;5.60;;;4.40;;
18905;SDS011;9585;51.018;4.282;2023-02-28T00:21:53;6.03;;;4.40;;
18905;SDS011;9585;51.018;4.282;2023-02-28T00:24:20;6.23;;;4.73;;
18905;SDS011;9585;51.018;4.282;2023-02-28T00:26:48;7.03;;;4.57;;
18905;SDS011;9585;51.018;4.282;2023-02-28T00:29:19;6.33;;;4.30;;
18905;SDS011;9585;51.018;4.282;2023-02-28T00:31:46;5.43;;;4.70;;
18905;SDS011;9585;51.018;4.282;2023-02-28T00:34:16;6.07;;;4.53;;
18905;SDS011;9585;51.018;4.282;2023-02-28T00:36:45;6.80;;;4.83;;
18905;SDS011;9585;51.018;4.282;2023-02-28T00:39:17;6.00;;;4.37;;
18905;SDS011;9585;51.018;4.282;2023-02-28T00:41:45;7.23;;;5.20;;
18905;SDS011;9585;51.018;4.282;2023-02-28T00:44:12;7.47;;;5.40;;
18905;SDS011;9585;51.018;4.282;2023-02-28T00:46:40;8.37;;;5.13;;
18905;SDS011;9585;51.018;4.282;2023-02-28T00:49:15;6.33;;;5.07;;
18905;SDS011;9585;51.018;4.282;2023-02-28T00:51:51;8.77;;;5.20;;
18905;SDS011;9585;51.018;4.282;2023-02-28T00:54:21;7.50;;;5.37;;
18905;SDS011;9585;51.018;4.282;2023-02-28T00:56:49;6.27;;;5.20;;
18905;SDS011;9585;51.018;4.282;2023-02-28T00:59:17;5.90;;;5.23;;
18905;SDS011;9585;51.018;4.282;2023-02-28T01:01:45;5.60;;;5.10;;
18905;SDS011;9585;51.018;4.282;2023-02-28T01:04:13;5.87;;;4.87;;
18905;SDS011;9585;51.018;4.282;2023-02-28T01:06:43;7.50;;;5.67;;
18905;SDS011;9585;51.018;4.282;2023-02-28T01:12:05;9.60;;;5.47;;
18905;SDS011;9585;51.018;4.282;2023-02-28T01:14:34;8.30;;;5.27;;
18905;SDS011;9585;51.018;4.282;2023-02-28T01:17:02;6.07;;;5.23;;
18905;SDS011;9585;51.018;4.282;2023-02-28T01:19:29;6.33;;;5.30;;
18905;SDS011;9585;51.018;4.282;2023-02-28T01:21:56;7.10;;;5.60;;
18905;SDS011;9585;51.018;4.282;2023-02-28T01:24:27;6.70;;;5.33;;
18905;SDS011;9585;51.018;4.282;2023-02-28T01:26:56;6.37;;;5.60;;
18905;SDS011;9585;51.018;4.282;2023-02-28T01:29:23;6.50;;;4.97;;
18905;SDS011;9585;51.018;4.282;2023-02-28T01:31:50;7.47;;;5.47;;
18905;SDS011;9585;51.018;4.282;2023-02-28T01:34:21;9.00;;;5.90;;
18905;SDS011;9585;51.018;4.282;2023-02-28T01:36:56;5.90;;;5.30;;
18905;SDS011;9585;51.018;4.282;2023-02-28T01:39:24;6.90;;;5.60;;
18905;SDS011;9585;51.018;4.282;2023-02-28T01:41:51;7.03;;;5.27;;
18905;SDS011;9585;51.018;4.282;2023-02-28T01:47:39;6.60;;;5.30;;
18905;SDS011;9585;51.018;4.282;2023-02-28T01:50:10;6.93;;;6.20;;
18905;SDS011;9585;51.018;4.282;2023-02-28T01:52:41;9.33;;;6.17;;
18905;SDS011;9585;51.018;4.282;2023-02-28T01:55:09;8.33;;;5.67;;
18905;SDS011;9585;51.018;4.282;2023-02-28T01:57:39;7.13;;;5.50;;
18905;SDS011;9585;51.018;4.282;2023-02-28T02:00:10;7.90;;;5.67;;
18905;SDS011;9585;51.018;4.282;2023-02-28T02:02:42;7.67;;;6.00;;
18905;SDS011;9585;51.018;4.282;2023-02-28T02:05:12;8.63;;;6.30;;
18905;SDS011;9585;51.018;4.282;2023-02-28T02:07:42;7.97;;;6.17;;
18905;SDS011;9585;51.018;4.282;2023-02-28T02:10:13;7.13;;;5.57;;
18905;SDS011;9585;51.018;4.282;2023-02-28T02:12:52;6.97;;;5.90;;
18905;SDS011;9585;51.018;4.282;2023-02-28T02:15:32;8.07;;;6.03;;
18905;SDS011;9585;51.018;4.282;2023-02-28T02:18:14;8.13;;;5.73;;
18905;SDS011;9585;51.018;4.282;2023-02-28T02:21:01;7.17;;;5.83;;
18905;SDS011;9585;51.018;4.282;2023-02-28T02:24:02;6.80;;;5.77;;
18905;SDS011;9585;51.018;4.282;2023-02-28T02:26:58;7.37;;;6.03;;
18905;SDS011;9585;51.018;4.282;2023-02-28T02:29:55;8.17;;;6.37;;
18905;SDS011;9585;51.018;4.282;2023-02-28T02:32:49;8.10;;;6.40;;
18905;SDS011;9585;51.018;4.282;2023-02-28T02:35:49;7.70;;;5.80;;
18905;SDS011;9585;51.018;4.282;2023-02-28T02:38:23;7.63;;;5.80;;
18905;SDS011;9585;51.018;4.282;2023-02-28T02:40:59;7.30;;;6.13;;
18905;SDS011;9585;51.018;4.282;2023-02-28T02:43:35;8.53;;;6.63;;
18905;SDS011;9585;51.018;4.282;2023-02-28T02:46:08;7.90;;;5.93;;
18905;SDS011;9585;51.018;4.282;2023-02-28T02:48:40;8.90;;;6.20;;
18905;SDS011;9585;51.018;4.282;2023-02-28T02:51:12;10.97;;;6.60;;
18905;SDS011;9585;51.018;4.282;2023-02-28T02:53:42;10.63;;;7.00;;
18905;SDS011;9585;51.018;4.282;2023-02-28T02:56:15;8.37;;;6.60;;
18905;SDS011;9585;51.018;4.282;2023-02-28T02:58:50;7.67;;;6.87;;
18905;SDS011;9585;51.018;4.282;2023-02-28T03:01:22;10.23;;;6.60;;
18905;SDS011;9585;51.018;4.282;2023-02-28T03:03:54;8.40;;;6.70;;
18905;SDS011;9585;51.018;4.282;2023-02-28T03:06:25;11.03;;;7.17;;
18905;SDS011;9585;51.018;4.282;2023-02-28T03:08:53;7.97;;;6.73;;
18905;SDS011;9585;51.018;4.282;2023-02-28T03:11:23;8.63;;;7.00;;
18905;SDS011;9585;51.018;4.282;2023-02-28T03:16:59;8.93;;;7.07;;
18905;SDS011;9585;51.018;4.282;2023-02-28T03:19:51;10.57;;;7.30;;
18905;SDS011;9585;51.018;4.282;2023-02-28T03:22:54;7.83;;;6.30;;
18905;SDS011;9585;51.018;4.282;2023-02-28T03:25:29;8.13;;;6.70;;
18905;SDS011;9585;51.018;4.282;2023-02-28T03:28:08;8.40;;;6.60;;
18905;SDS011;9585;51.018;4.282;2023-02-28T03:30:47;10.70;;;7.17;;
18905;SDS011;9585;51.018;4.282;2023-02-28T03:33:20;7.47;;;6.40;;
18905;SDS011;9585;51.018;4.282;2023-02-28T03:35:51;8.63;;;6.40;;
18905;SDS011;9585;51.018;4.282;2023-02-28T03:38:30;8.30;;;6.50;;
18905;SDS011;9585;51.018;4.282;2023-02-28T03:41:06;8.23;;;5.93;;
18905;SDS011;9585;51.018;4.282;2023-02-28T03:43:40;8.53;;;6.43;;
18905;SDS011;9585;51.018;4.282;2023-02-28T03:46:12;8.40;;;6.87;;
18905;SDS011;9585;51.018;4.282;2023-02-28T03:48:47;8.33;;;6.20;;
18905;SDS011;9585;51.018;4.282;2023-02-28T03:51:22;9.33;;;6.87;;
18905;SDS011;9585;51.018;4.282;2023-02-28T03:53:54;8.83;;;6.83;;
18905;SDS011;9585;51.018;4.282;2023-02-28T03:56:45;6.80;;;6.10;;
18905;SDS011;9585;51.018;4.282;2023-02-28T03:59:34;9.23;;;6.37;;
18905;SDS011;9585;51.018;4.282;2023-02-28T04:02:04;10.83;;;7.20;;
18905;SDS011;9585;51.018;4.282;2023-02-28T04:04:32;9.63;;;6.50;;
18905;SDS011;9585;51.018;4.282;2023-02-28T04:07:01;8.23;;;6.17;;
18905;SDS011;9585;51.018;4.282;2023-02-28T04:09:44;7.10;;;6.30;;
18905;SDS011;9585;51.018;4.282;2023-02-28T04:12:11;6.20;;;5.60;;
18905;SDS011;9585;51.018;4.282;2023-02-28T04:14:44;8.07;;;6.00;;
18905;SDS011;9585;51.018;4.282;2023-02-28T04:17:17;8.97;;;6.40;;
18905;SDS011;9585;51.018;4.282;2023-02-28T04:19:51;7.60;;;5.57;;
18905;SDS011;9585;51.018;4.282;2023-02-28T04:22:22;6.63;;;5.93;;
18905;SDS011;9585;51.018;4.282;2023-02-28T04:24:59;7.73;;;6.30;;
18905;SDS011;9585;51.018;4.282;2023-02-28T04:27:37;9.73;;;6.80;;
18905;SDS011;9585;51.018;4.282;2023-02-28T04:30:08;6.83;;;5.87;;
18905;SDS011;9585;51.018;4.282;2023-02-28T04:32:42;6.80;;;5.47;;
18905;SDS011;9585;51.018;4.282;2023-02-28T04:35:10;7.57;;;5.90;;
18905;SDS011;9585;51.018;4.282;2023-02-28T04:37:47;7.77;;;6.60;;
18905;SDS011;9585;51.018;4.282;2023-02-28T04:40:19;11.30;;;6.67;;
18905;SDS011;9585;51.018;4.282;2023-02-28T04:42:51;9.77;;;7.20;;
18905;SDS011;9585;51.018;4.282;2023-02-28T04:45:24;7.63;;;6.40;;
18905;SDS011;9585;51.018;4.282;2023-02-28T04:47:55;8.17;;;6.63;;
18905;SDS011;9585;51.018;4.282;2023-02-28T04:50:25;10.60;;;6.60;;
18905;SDS011;9585;51.018;4.282;2023-02-28T04:52:56;11.53;;;6.77;;
18905;SDS011;9585;51.018;4.282;2023-02-28T04:55:26;7.70;;;6.30;;
18905;SDS011;9585;51.018;4.282;2023-02-28T04:57:54;8.33;;;6.57;;
18905;SDS011;9585;51.018;4.282;2023-02-28T05:00:42;8.07;;;6.67;;
18905;SDS011;9585;51.018;4.282;2023-02-28T05:03:13;8.53;;;6.23;;
18905;SDS011;9585;51.018;4.282;2023-02-28T05:05:40;6.87;;;6.13;;
18905;SDS011;9585;51.018;4.282;2023-02-28T05:08:14;9.13;;;6.27;;
18905;SDS011;9585;51.018;4.282;2023-02-28T05:10:48;6.77;;;5.90;;
18905;SDS011;9585;51.018;4.282;2023-02-28T05:13:27;7.63;;;5.97;;
18905;SDS011;9585;51.018;4.282;2023-02-28T05:15:58;7.07;;;6.10;;
18905;SDS011;9585;51.018;4.282;2023-02-28T05:18:33;9.13;;;6.50;;
18905;SDS011;9585;51.018;4.282;2023-02-28T05:21:05;7.93;;;6.57;;
18905;SDS011;9585;51.018;4.282;2023-02-28T05:23:33;8.17;;;6.80;;
18905;SDS011;9585;51.018;4.282;2023-02-28T05:26:02;8.17;;;5.87;;
18905;SDS011;9585;51.018;4.282;2023-02-28T05:28:30;8.13;;;6.00;;
18905;SDS011;9585;51.018;4.282;2023-02-28T05:31:03;8.07;;;6.27;;
18905;SDS011;9585;51.018;4.282;2023-02-28T05:33:33;6.63;;;5.90;;
18905;SDS011;9585;51.018;4.282;2023-02-28T05:36:16;8.50;;;6.07;;
18905;SDS011;9585;51.018;4.282;2023-02-28T05:38:57;8.37;;;6.17;;
18905;SDS011;9585;51.018;4.282;2023-02-28T05:41:32;7.63;;;5.97;;
18905;SDS011;9585;51.018;4.282;2023-02-28T05:44:02;6.77;;;5.57;;
18905;SDS011;9585;51.018;4.282;2023-02-28T05:46:30;8.47;;;6.03;;
18905;SDS011;9585;51.018;4.282;2023-02-28T05:48:57;8.40;;;5.83;;
18905;SDS011;9585;51.018;4.282;2023-02-28T05:51:31;7.23;;;5.67;;
18905;SDS011;9585;51.018;4.282;2023-02-28T05:54:01;8.07;;;6.00;;
18905;SDS011;9585;51.018;4.282;2023-02-28T05:56:35;8.23;;;5.80;;
18905;SDS011;9585;51.018;4.282;2023-02-28T05:59:06;8.17;;;6.00;;
18905;SDS011;9585;51.018;4.282;2023-02-28T06:01:46;6.67;;;5.73;;
18905;SDS011;9585;51.018;4.282;2023-02-28T06:04:18;9.83;;;5.50;;
18905;SDS011;9585;51.018;4.282;2023-02-28T06:06:49;8.43;;;5.73;;
18905;SDS011;9585;51.018;4.282;2023-02-28T06:09:19;9.03;;;5.90;;
18905;SDS011;9585;51.018;4.282;2023-02-28T06:11:48;10.10;;;6.30;;
18905;SDS011;9585;51.018;4.282;2023-02-28T06:14:18;8.80;;;5.70;;
18905;SDS011;9585;51.018;4.282;2023-02-28T06:16:47;6.93;;;5.50;;
18905;SDS011;9585;51.018;4.282;2023-02-28T06:19:17;9.00;;;6.03;;
18905;SDS011;9585;51.018;4.282;2023-02-28T06:21:45;8.40;;;5.77;;
18905;SDS011;9585;51.018;4.282;2023-02-28T06:24:15;8.03;;;6.20;;
18905;SDS011;9585;51.018;4.282;2023-02-28T06:26:43;8.97;;;5.33;;
18905;SDS011;9585;51.018;4.282;2023-02-28T06:29:12;6.43;;;5.60;;
18905;SDS011;9585;51.018;4.282;2023-02-28T06:31:43;7.93;;;5.70;;
18905;SDS011;9585;51.018;4.282;2023-02-28T06:34:14;6.93;;;5.70;;
18905;SDS011;9585;51.018;4.282;2023-02-28T06:36:41;6.27;;;5.63;;
18905;SDS011;9585;51.018;4.282;2023-02-28T06:39:09;7.33;;;5.60;;
18905;SDS011;9585;51.018;4.282;2023-02-28T06:41:36;6.90;;;5.70;;
18905;SDS011;9585;51.018;4.282;2023-02-28T06:44:12;7.33;;;5.13;;
18905;SDS011;9585;51.018;4.282;2023-02-28T06:46:41;7.10;;;5.43;;
18905;SDS011;9585;51.018;4.282;2023-02-28T06:49:10;6.13;;;5.20;;
18905;SDS011;9585;51.018;4.282;2023-02-28T06:51:41;7.03;;;5.47;;
18905;SDS011;9585;51.018;4.282;2023-02-28T06:54:11;7.93;;;5.67;;
18905;SDS011;9585;51.018;4.282;2023-02-28T06:56:40;6.63;;;5.80;;
18905;SDS011;9585;51.018;4.282;2023-02-28T06:59:14;8.40;;;5.63;;
18905;SDS011;9585;51.018;4.282;2023-02-28T07:01:47;8.43;;;5.50;;
18905;SDS011;9585;51.018;4.282;2023-02-28T07:04:16;8.93;;;6.00;;
18905;SDS011;9585;51.018;4.282;2023-02-28T07:06:43;7.23;;;5.57;;
18905;SDS011;9585;51.018;4.282;2023-02-28T07:09:10;6.70;;;5.87;;
18905;SDS011;9585;51.018;4.282;2023-02-28T07:11:39;8.37;;;6.17;;
18905;SDS011;9585;51.018;4.282;2023-02-28T07:14:10;7.97;;;5.87;;
18905;SDS011;9585;51.018;4.282;2023-02-28T07:16:39;7.90;;;5.90;;
18905;SDS011;9585;51.018;4.282;2023-02-28T07:19:07;8.67;;;6.00;;
18905;SDS011;9585;51.018;4.282;2023-02-28T07:21:34;8.90;;;6.30;;
18905;SDS011;9585;51.018;4.282;2023-02-28T07:24:04;7.07;;;5.40;;
18905;SDS011;9585;51.018;4.282;2023-02-28T07:26:35;6.37;;;5.40;;
18905;SDS011;9585;51.018;4.282;2023-02-28T07:29:03;9.80;;;5.87;;
18905;SDS011;9585;51.018;4.282;2023-02-28T07:31:33;8.30;;;4.80;;
18905;SDS011;9585;51.018;4.282;2023-02-28T07:34:04;7.22;;;5.78;;
18905;SDS011;9585;51.018;4.282;2023-02-28T07:36:35;7.28;;;5.35;;
18905;SDS011;9585;51.018;4.282;2023-02-28T07:39:05;6.72;;;4.82;;
18905;SDS011;9585;51.018;4.282;2023-02-28T07:41:34;6.03;;;4.25;;
18905;SDS011;9585;51.018;4.282;2023-02-28T07:44:11;5.35;;;4.32;;
18905;SDS011;9585;51.018;4.282;2023-02-28T07:46:39;6.50;;;4.35;;
18905;SDS011;9585;51.018;4.282;2023-02-28T07:49:08;7.68;;;4.38;;
18905;SDS011;9585;51.018;4.282;2023-02-28T07:51:35;5.38;;;4.50;;
18905;SDS011;9585;51.018;4.282;2023-02-28T07:54:05;6.50;;;4.47;;
18905;SDS011;9585;51.018;4.282;2023-02-28T07:56:33;7.00;;;4.65;;
18905;SDS011;9585;51.018;4.282;2023-02-28T07:59:00;5.95;;;4.50;;
18905;SDS011;9585;51.018;4.282;2023-02-28T08:01:31;8.00;;;4.40;;
18905;SDS011;9585;51.018;4.282;2023-02-28T08:04:00;6.55;;;4.72;;
18905;SDS011;9585;51.018;4.282;2023-02-28T08:06:29;7.10;;;4.95;;
18905;SDS011;9585;51.018;4.282;2023-02-28T08:08:56;6.78;;;4.80;;
18905;SDS011;9585;51.018;4.282;2023-02-28T08:11:27;9.10;;;4.45;;
18905;SDS011;9585;51.018;4.282;2023-02-28T08:13:54;7.88;;;4.75;;
18905;SDS011;9585;51.018;4.282;2023-02-28T08:16:22;5.05;;;3.60;;
18905;SDS011;9585;51.018;4.282;2023-02-28T08:18:52;5.18;;;3.75;;
18905;SDS011;9585;51.018;4.282;2023-02-28T08:21:20;5.57;;;3.60;;
18905;SDS011;9585;51.018;4.282;2023-02-28T08:23:52;6.05;;;4.03;;
18905;SDS011;9585;51.018;4.282;2023-02-28T08:26:40;4.95;;;3.40;;
18905;SDS011;9585;51.018;4.282;2023-02-28T08:29:07;4.30;;;3.80;;
18905;SDS011;9585;51.018;4.282;2023-02-28T08:31:37;8.23;;;3.60;;
18905;SDS011;9585;51.018;4.282;2023-02-28T08:34:05;4.47;;;3.50;;
18905;SDS011;9585;51.018;4.282;2023-02-28T08:36:33;6.23;;;3.03;;
18905;SDS011;9585;51.018;4.282;2023-02-28T08:39:01;5.70;;;3.20;;
18905;SDS011;9585;51.018;4.282;2023-02-28T08:41:29;5.38;;;3.08;;
18905;SDS011;9585;51.018;4.282;2023-02-28T08:43:57;5.95;;;3.53;;
18905;SDS011;9585;51.018;4.282;2023-02-28T08:46:25;5.85;;;2.83;;
18905;SDS011;9585;51.018;4.282;2023-02-28T08:48:52;4.53;;;3.20;;
18905;SDS011;9585;51.018;4.282;2023-02-28T08:51:21;4.37;;;3.00;;
18905;SDS011;9585;51.018;4.282;2023-02-28T08:53:51;4.97;;;2.97;;
18905;SDS011;9585;51.018;4.282;2023-02-28T08:56:21;4.78;;;2.80;;
18905;SDS011;9585;51.018;4.282;2023-02-28T08:58:49;5.83;;;3.47;;
18905;SDS011;9585;51.018;4.282;2023-02-28T09:01:18;4.73;;;3.27;;
18905;SDS011;9585;51.018;4.282;2023-02-28T09:03:47;3.85;;;2.72;;
18905;SDS011;9585;51.018;4.282;2023-02-28T09:06:16;4.70;;;2.67;;
18905;SDS011;9585;51.018;4.282;2023-02-28T09:08:46;4.80;;;3.00;;
18905;SDS011;9585;51.018;4.282;2023-02-28T09:11:14;4.93;;;2.60;;
18905;SDS011;9585;51.018;4.282;2023-02-28T09:13:43;5.03;;;2.87;;
18905;SDS011;9585;51.018;4.282;2023-02-28T09:16:12;4.30;;;2.23;;
18905;SDS011;9585;51.018;4.282;2023-02-28T09:18:41;5.40;;;3.00;;
18905;SDS011;9585;51.018;4.282;2023-02-28T09:21:10;3.13;;;2.60;;
18905;SDS011;9585;51.018;4.282;2023-02-28T09:23:40;4.80;;;2.93;;
18905;SDS011;9585;51.018;4.282;2023-02-28T09:26:12;3.65;;;2.75;;
18905;SDS011;9585;51.018;4.282;2023-02-28T09:28:41;4.65;;;3.10;;
18905;SDS011;9585;51.018;4.282;2023-02-28T09:31:13;4.97;;;3.22;;
18905;SDS011;9585;51.018;4.282;2023-02-28T09:33:46;6.43;;;3.00;;
18905;SDS011;9585;51.018;4.282;2023-02-28T09:36:13;5.47;;;2.60;;
18905;SDS011;9585;51.018;4.282;2023-02-28T09:38:40;3.78;;;2.33;;
18905;SDS011;9585;51.018;4.282;2023-02-28T09:41:12;3.72;;;2.80;;
18905;SDS011;9585;51.018;4.282;2023-02-28T09:43:43;2.20;;;1.92;;
18905;SDS011;9585;51.018;4.282;2023-02-28T09:46:20;2.92;;;2.00;;
18905;SDS011;9585;51.018;4.282;2023-02-28T09:48:59;3.97;;;1.92;;
18905;SDS011;9585;51.018;4.282;2023-02-28T09:51:33;2.70;;;1.90;;
18905;SDS011;9585;51.018;4.282;2023-02-28T09:54:09;2.53;;;1.95;;
18905;SDS011;9585;51.018;4.282;2023-02-28T09:56:44;2.70;;;2.08;;
18905;SDS011;9585;51.018;4.282;2023-02-28T09:59:22;2.83;;;2.17;;
18905;SDS011;9585;51.018;4.282;2023-02-28T10:02:01;3.03;;;1.73;;
18905;SDS011;9585;51.018;4.282;2023-02-28T10:04:41;2.27;;;1.60;;
18905;SDS011;9585;51.018;4.282;2023-02-28T10:07:21;2.25;;;1.80;;
18905;SDS011;9585;51.018;4.282;2023-02-28T10:09:57;2.47;;;1.60;;
18905;SDS011;9585;51.018;4.282;2023-02-28T10:12:28;2.93;;;1.80;;
18905;SDS011;9585;51.018;4.282;2023-02-28T10:14:59;2.80;;;1.77;;
18905;SDS011;9585;51.018;4.282;2023-02-28T10:17:29;3.80;;;2.10;;
18905;SDS011;9585;51.018;4.282;2023-02-28T10:20:05;2.07;;;1.70;;
18905;SDS011;9585;51.018;4.282;2023-02-28T10:22:40;3.10;;;1.80;;
18905;SDS011;9585;51.018;4.282;2023-02-28T10:25:17;2.47;;;1.85;;
18905;SDS011;9585;51.018;4.282;2023-02-28T10:27:46;1.88;;;1.70;;
18905;SDS011;9585;51.018;4.282;2023-02-28T10:30:15;3.58;;;1.80;;
18905;SDS011;9585;51.018;4.282;2023-02-28T10:32:44;4.13;;;1.90;;
18905;SDS011;9585;51.018;4.282;2023-02-28T10:35:19;2.20;;;1.80;;
18905;SDS011;9585;51.018;4.282;2023-02-28T10:37:47;2.58;;;2.10;;
18905;SDS011;9585;51.018;4.282;2023-02-28T10:40:27;3.72;;;1.80;;
18905;SDS011;9585;51.018;4.282;2023-02-28T10:42:58;2.90;;;2.08;;
18905;SDS011;9585;51.018;4.282;2023-02-28T10:45:28;2.10;;;1.50;;
18905;SDS011;9585;51.018;4.282;2023-02-28T10:47:57;2.53;;;2.03;;
18905;SDS011;9585;51.018;4.282;2023-02-28T10:50:27;2.67;;;1.93;;
18905;SDS011;9585;51.018;4.282;2023-02-28T10:55:58;2.77;;;1.70;;
18905;SDS011;9585;51.018;4.282;2023-02-28T10:58:28;2.60;;;1.70;;
18905;SDS011;9585;51.018;4.282;2023-02-28T11:00:58;2.28;;;2.00;;
18905;SDS011;9585;51.018;4.282;2023-02-28T11:03:30;4.18;;;2.78;;
18905;SDS011;9585;51.018;4.282;2023-02-28T11:06:03;3.28;;;1.98;;
18905;SDS011;9585;51.018;4.282;2023-02-28T11:08:33;2.00;;;1.75;;
18905;SDS011;9585;51.018;4.282;2023-02-28T11:11:03;2.22;;;2.00;;
18905;SDS011;9585;51.018;4.282;2023-02-28T11:13:33;2.58;;;2.08;;
18905;SDS011;9585;51.018;4.282;2023-02-28T11:16:05;3.92;;;2.30;;
18905;SDS011;9585;51.018;4.282;2023-02-28T11:18:37;2.08;;;1.60;;
18905;SDS011;9585;51.018;4.282;2023-02-28T11:21:08;2.30;;;1.45;;
18905;SDS011;9585;51.018;4.282;2023-02-28T11:23:42;2.22;;;1.60;;
18905;SDS011;9585;51.018;4.282;2023-02-28T11:26:10;1.50;;;1.40;;
18905;SDS011;9585;51.018;4.282;2023-02-28T11:28:38;1.50;;;1.40;;
18905;SDS011;9585;51.018;4.282;2023-02-28T11:31:18;1.63;;;1.48;;
18905;SDS011;9585;51.018;4.282;2023-02-28T11:33:47;2.33;;;1.55;;
18905;SDS011;9585;51.018;4.282;2023-02-28T11:36:18;1.88;;;1.40;;
18905;SDS011;9585;51.018;4.282;2023-02-28T11:38:50;2.35;;;1.50;;
18905;SDS011;9585;51.018;4.282;2023-02-28T11:41:28;2.03;;;1.45;;
18905;SDS011;9585;51.018;4.282;2023-02-28T11:44:11;2.67;;;1.83;;
18905;SDS011;9585;51.018;4.282;2023-02-28T11:46:51;2.78;;;1.80;;
18905;SDS011;9585;51.018;4.282;2023-02-28T11:49:28;2.80;;;1.60;;
18905;SDS011;9585;51.018;4.282;2023-02-28T11:52:05;2.30;;;1.80;;
18905;SDS011;9585;51.018;4.282;2023-02-28T11:54:47;2.53;;;1.80;;
18905;SDS011;9585;51.018;4.282;2023-02-28T11:57:30;2.72;;;1.45;;
18905;SDS011;9585;51.018;4.282;2023-02-28T12:00:07;2.13;;;1.80;;
18905;SDS011;9585;51.018;4.282;2023-02-28T12:02:50;2.42;;;2.03;;
18905;SDS011;9585;51.018;4.282;2023-02-28T12:05:36;2.08;;;1.70;;
18905;SDS011;9585;51.018;4.282;2023-02-28T12:08:15;1.73;;;1.58;;
18905;SDS011;9585;51.018;4.282;2023-02-28T12:10:55;2.28;;;1.77;;
18905;SDS011;9585;51.018;4.282;2023-02-28T12:13:33;2.55;;;1.70;;
18905;SDS011;9585;51.018;4.282;2023-02-28T12:16:22;2.70;;;2.15;;
18905;SDS011;9585;51.018;4.282;2023-02-28T12:19:05;3.03;;;2.05;;
18905;SDS011;9585;51.018;4.282;2023-02-28T12:21:44;2.85;;;1.70;;
18905;SDS011;9585;51.018;4.282;2023-02-28T12:24:25;2.25;;;1.52;;
18905;SDS011;9585;51.018;4.282;2023-02-28T12:27:05;4.55;;;1.80;;
18905;SDS011;9585;51.018;4.282;2023-02-28T12:29:39;2.30;;;1.55;;
18905;SDS011;9585;51.018;4.282;2023-02-28T12:32:21;2.83;;;1.80;;
18905;SDS011;9585;51.018;4.282;2023-02-28T12:34:56;3.30;;;2.00;;
18905;SDS011;9585;51.018;4.282;2023-02-28T12:37:33;3.33;;;2.00;;
18905;SDS011;9585;51.018;4.282;2023-02-28T12:40:08;3.28;;;1.80;;
18905;SDS011;9585;51.018;4.282;2023-02-28T12:42:39;4.07;;;2.25;;
18905;SDS011;9585;51.018;4.282;2023-02-28T12:45:12;3.88;;;1.83;;
18905;SDS011;9585;51.018;4.282;2023-02-28T12:47:44;3.05;;;2.00;;
18905;SDS011;9585;51.018;4.282;2023-02-28T12:50:18;1.83;;;1.70;;
18905;SDS011;9585;51.018;4.282;2023-02-28T12:52:50;1.80;;;1.60;;
18905;SDS011;9585;51.018;4.282;2023-02-28T12:55:23;3.13;;;2.30;;
18905;SDS011;9585;51.018;4.282;2023-02-28T12:58:00;4.57;;;2.13;;
18905;SDS011;9585;51.018;4.282;2023-02-28T13:00:35;2.03;;;1.48;;
18905;SDS011;9585;51.018;4.282;2023-02-28T13:06:26;2.50;;;2.00;;
18905;SDS011;9585;51.018;4.282;2023-02-28T13:09:19;2.58;;;2.05;;
18905;SDS011;9585;51.018;4.282;2023-02-28T13:11:57;2.50;;;1.80;;
18905;SDS011;9585;51.018;4.282;2023-02-28T13:14:29;4.68;;;2.03;;
18905;SDS011;9585;51.018;4.282;2023-02-28T13:17:03;2.63;;;2.08;;
18905;SDS011;9585;51.018;4.282;2023-02-28T13:19:44;2.30;;;2.08;;
18905;SDS011;9585;51.018;4.282;2023-02-28T13:22:36;2.20;;;1.83;;
18905;SDS011;9585;51.018;4.282;2023-02-28T13:37:46;2.05;;;1.85;;
18905;SDS011;9585;51.018;4.282;2023-02-28T13:43:07;2.42;;;2.13;;
18905;SDS011;9585;51.018;4.282;2023-02-28T13:45:39;2.20;;;2.00;;
18905;SDS011;9585;51.018;4.282;2023-02-28T13:48:38;2.40;;;2.20;;
18905;SDS011;9585;51.018;4.282;2023-02-28T13:54:18;2.70;;;2.50;;
18905;SDS011;9585;51.018;4.282;2023-02-28T13:56:59;2.33;;;2.10;;
18905;SDS011;9585;51.018;4.282;2023-02-28T13:59:40;2.55;;;2.35;;
18905;SDS011;9585;51.018;4.282;2023-02-28T14:02:30;2.83;;;2.15;;
18905;SDS011;9585;51.018;4.282;2023-02-28T14:05:13;2.40;;;2.05;;
18905;SDS011;9585;51.018;4.282;2023-02-28T14:07:45;2.28;;;2.08;;
18905;SDS011;9585;51.018;4.282;2023-02-28T14:10:24;2.60;;;2.38;;
18905;SDS011;9585;51.018;4.282;2023-02-28T14:13:01;2.67;;;2.20;;
18905;SDS011;9585;51.018;4.282;2023-02-28T14:15:47;2.50;;;2.28;;
18905;SDS011;9585;51.018;4.282;2023-02-28T14:18:26;3.15;;;2.60;;
18905;SDS011;9585;51.018;4.282;2023-02-28T14:21:16;2.33;;;2.05;;
18905;SDS011;9585;51.018;4.282;2023-02-28T14:24:13;2.13;;;1.93;;
18905;SDS011;9585;51.018;4.282;2023-02-28T14:27:22;3.60;;;2.40;;
18905;SDS011;9585;51.018;4.282;2023-02-28T14:30:01;2.45;;;2.25;;
18905;SDS011;9585;51.018;4.282;2023-02-28T14:32:47;4.88;;;2.13;;
18905;SDS011;9585;51.018;4.282;2023-02-28T14:35:35;2.35;;;2.08;;
18905;SDS011;9585;51.018;4.282;2023-02-28T14:38:14;2.00;;;1.90;;
18905;SDS011;9585;51.018;4.282;2023-02-28T14:40:47;3.17;;;2.50;;
18905;SDS011;9585;51.018;4.282;2023-02-28T14:43:20;2.50;;;2.30;;
18905;SDS011;9585;51.018;4.282;2023-02-28T14:45:54;2.30;;;2.10;;
18905;SDS011;9585;51.018;4.282;2023-02-28T14:48:23;2.92;;;2.30;;
18905;SDS011;9585;51.018;4.282;2023-02-28T14:50:52;2.70;;;2.40;;
18905;SDS011;9585;51.018;4.282;2023-02-28T14:53:25;2.42;;;1.95;;
18905;SDS011;9585;51.018;4.282;2023-02-28T14:55:55;2.53;;;2.33;;
18905;SDS011;9585;51.018;4.282;2023-02-28T14:58:25;4.85;;;2.40;;
18905;SDS011;9585;51.018;4.282;2023-02-28T15:00:55;3.30;;;2.05;;
18905;SDS011;9585;51.018;4.282;2023-02-28T15:03:24;2.45;;;2.20;;
18905;SDS011;9585;51.018;4.282;2023-02-28T15:05:58;2.80;;;2.58;;
18905;SDS011;9585;51.018;4.282;2023-02-28T15:08:28;2.72;;;2.28;;
18905;SDS011;9585;51.018;4.282;2023-02-28T15:11:01;3.35;;;2.33;;
18905;SDS011;9585;51.018;4.282;2023-02-28T15:13:36;3.10;;;2.45;;
18905;SDS011;9585;51.018;4.282;2023-02-28T15:16:12;3.22;;;2.30;;
18905;SDS011;9585;51.018;4.282;2023-02-28T15:18:46;3.38;;;2.53;;
18905;SDS011;9585;51.018;4.282;2023-02-28T15:21:26;2.92;;;2.70;;
18905;SDS011;9585;51.018;4.282;2023-02-28T15:23:58;3.35;;;2.70;;
18905;SDS011;9585;51.018;4.282;2023-02-28T15:26:33;2.90;;;2.22;;
18905;SDS011;9585;51.018;4.282;2023-02-28T15:29:07;3.58;;;2.30;;
18905;SDS011;9585;51.018;4.282;2023-02-28T15:31:40;3.85;;;3.00;;
18905;SDS011;9585;51.018;4.282;2023-02-28T15:34:12;3.38;;;2.50;;
18905;SDS011;9585;51.018;4.282;2023-02-28T15:36:46;3.42;;;2.60;;
18905;SDS011;9585;51.018;4.282;2023-02-28T15:39:18;3.72;;;2.60;;
18905;SDS011;9585;51.018;4.282;2023-02-28T15:41:49;4.15;;;2.53;;
18905;SDS011;9585;51.018;4.282;2023-02-28T15:44:23;3.00;;;2.60;;
18905;SDS011;9585;51.018;4.282;2023-02-28T15:46:59;3.30;;;2.75;;
18905;SDS011;9585;51.018;4.282;2023-02-28T15:49:28;3.78;;;2.30;;
18905;SDS011;9585;51.018;4.282;2023-02-28T15:52:03;2.75;;;2.33;;
18905;SDS011;9585;51.018;4.282;2023-02-28T15:54:32;2.60;;;2.40;;
18905;SDS011;9585;51.018;4.282;2023-02-28T15:57:02;3.05;;;2.72;;
18905;SDS011;9585;51.018;4.282;2023-02-28T15:59:35;3.63;;;2.65;;
18905;SDS011;9585;51.018;4.282;2023-02-28T16:07:53;2.80;;;2.50;;
18905;SDS011;9585;51.018;4.282;2023-02-28T16:10:21;2.55;;;2.35;;
18905;SDS011;9585;51.018;4.282;2023-02-28T16:12:54;3.65;;;2.53;;
18905;SDS011;9585;51.018;4.282;2023-02-28T16:15:25;4.25;;;2.60;;
18905;SDS011;9585;51.018;4.282;2023-02-28T16:17:55;4.93;;;2.70;;